sensor_id;sensor_type;location;lat;lon;timestamp;P1;durP1;ratioP1;P2;durP2;ratioP2
52456;SDS011;38369;52.840;7.082;2022-10-30T00:00:12;22.35;;;8.55;;
52456;SDS011;38369;52.840;7.082;2022-10-30T00:02:38;19.25;;;9.48;;
52456;SDS011;38369;52.840;7.082;2022-10-30T00:05:05;13.73;;;8.68;;
52456;SDS011;38369;52.840;7.082;2022-10-30T00:07:32;18.67;;;9.73;;
52456;SDS011;38369;52.840;7.082;2022-10-30T00:09:58;19.60;;;9.25;;
52456;SDS011;38369;52.840;7.082;2022-10-30T00:12:24;20.00;;;9.60;;
52456;SDS011;38369;52.840;7.082;2022-10-30T00:14:50;19.58;;;10.55;;
52456;SDS011;38369;52.840;7.082;2022-10-30T00:17:16;29.67;;;11.40;;
52456;SDS011;38369;52.840;7.082;2022-10-30T00:19:42;22.40;;;10.40;;
52456;SDS011;38369;52.840;7.082;2022-10-30T00:22:08;20.83;;;10.35;;
52456;SDS011;38369;52.840;7.082;2022-10-30T00:24:34;18.70;;;10.27;;
52456;SDS011;38369;52.840;7.082;2022-10-30T00:27:00;24.88;;;9.63;;
52456;SDS011;38369;52.840;7.082;2022-10-30T00:29:27;15.82;;;9.93;;
52456;SDS011;38369;52.840;7.082;2022-10-30T00:31:53;23.15;;;9.68;;
52456;SDS011;38369;52.840;7.082;2022-10-30T00:34:19;20.05;;;9.93;;
52456;SDS011;38369;52.840;7.082;2022-10-30T00:36:45;21.27;;;9.95;;
52456;SDS011;38369;52.840;7.082;2022-10-30T00:39:11;25.75;;;10.20;;
52456;SDS011;38369;52.840;7.082;2022-10-30T00:41:37;29.80;;;10.63;;
52456;SDS011;38369;52.840;7.082;2022-10-30T00:46:50;16.45;;;10.20;;
52456;SDS011;38369;52.840;7.082;2022-10-30T00:49:16;26.27;;;10.90;;
52456;SDS011;38369;52.840;7.082;2022-10-30T00:51:45;21.88;;;10.20;;
52456;SDS011;38369;52.840;7.082;2022-10-30T00:54:12;15.75;;;9.82;;
52456;SDS011;38369;52.840;7.082;2022-10-30T00:56:39;25.83;;;10.05;;
52456;SDS011;38369;52.840;7.082;2022-10-30T00:59:09;20.23;;;10.52;;
52456;SDS011;38369;52.840;7.082;2022-10-30T01:01:37;18.60;;;10.68;;
52456;SDS011;38369;52.840;7.082;2022-10-30T01:04:04;25.30;;;10.02;;
52456;SDS011;38369;52.840;7.082;2022-10-30T01:06:31;21.42;;;10.30;;
52456;SDS011;38369;52.840;7.082;2022-10-30T01:08:57;18.20;;;10.07;;
52456;SDS011;38369;52.840;7.082;2022-10-30T01:11:23;18.30;;;9.98;;
52456;SDS011;38369;52.840;7.082;2022-10-30T01:13:50;16.95;;;11.32;;
52456;SDS011;38369;52.840;7.082;2022-10-30T01:21:32;14.77;;;8.95;;
52456;SDS011;38369;52.840;7.082;2022-10-30T01:24:12;18.55;;;9.35;;
52456;SDS011;38369;52.840;7.082;2022-10-30T01:26:46;20.63;;;9.73;;
52456;SDS011;38369;52.840;7.082;2022-10-30T01:29:19;19.70;;;9.68;;
52456;SDS011;38369;52.840;7.082;2022-10-30T01:37:12;14.73;;;9.15;;
52456;SDS011;38369;52.840;7.082;2022-10-30T01:39:35;20.42;;;8.93;;
52456;SDS011;38369;52.840;7.082;2022-10-30T01:44:47;22.33;;;10.02;;
52456;SDS011;38369;52.840;7.082;2022-10-30T01:49:48;18.25;;;9.75;;
52456;SDS011;38369;52.840;7.082;2022-10-30T01:52:33;25.77;;;10.80;;
52456;SDS011;38369;52.840;7.082;2022-10-30T01:55:12;16.13;;;9.90;;
52456;SDS011;38369;52.840;7.082;2022-10-30T01:57:44;16.65;;;9.57;;
52456;SDS011;38369;52.840;7.082;2022-10-30T02:00:13;18.10;;;9.43;;
52456;SDS011;38369;52.840;7.082;2022-10-30T02:02:40;22.27;;;9.30;;
52456;SDS011;38369;52.840;7.082;2022-10-30T02:05:07;26.90;;;9.93;;
52456;SDS011;38369;52.840;7.082;2022-10-30T02:07:37;18.38;;;9.07;;
52456;SDS011;38369;52.840;7.082;2022-10-30T02:10:03;22.83;;;10.43;;
52456;SDS011;38369;52.840;7.082;2022-10-30T02:12:29;21.98;;;10.60;;
52456;SDS011;38369;52.840;7.082;2022-10-30T02:14:56;22.65;;;10.57;;
52456;SDS011;38369;52.840;7.082;2022-10-30T02:17:23;24.15;;;10.02;;
52456;SDS011;38369;52.840;7.082;2022-10-30T02:19:50;20.55;;;9.48;;
52456;SDS011;38369;52.840;7.082;2022-10-30T02:22:16;19.27;;;10.05;;
52456;SDS011;38369;52.840;7.082;2022-10-30T02:24:42;15.10;;;8.60;;
52456;SDS011;38369;52.840;7.082;2022-10-30T02:27:08;23.45;;;10.00;;
52456;SDS011;38369;52.840;7.082;2022-10-30T02:29:35;19.50;;;9.25;;
52456;SDS011;38369;52.840;7.082;2022-10-30T02:32:01;16.33;;;9.90;;
52456;SDS011;38369;52.840;7.082;2022-10-30T02:34:27;15.40;;;9.90;;
52456;SDS011;38369;52.840;7.082;2022-10-30T02:36:53;24.10;;;10.40;;
52456;SDS011;38369;52.840;7.082;2022-10-30T02:39:19;22.95;;;10.02;;
52456;SDS011;38369;52.840;7.082;2022-10-30T02:41:45;19.48;;;10.25;;
52456;SDS011;38369;52.840;7.082;2022-10-30T02:44:12;18.23;;;10.02;;
52456;SDS011;38369;52.840;7.082;2022-10-30T02:46:38;17.13;;;9.63;;
52456;SDS011;38369;52.840;7.082;2022-10-30T02:49:04;22.17;;;10.48;;
52456;SDS011;38369;52.840;7.082;2022-10-30T02:51:30;22.95;;;9.77;;
52456;SDS011;38369;52.840;7.082;2022-10-30T02:53:57;20.90;;;8.80;;
52456;SDS011;38369;52.840;7.082;2022-10-30T02:56:24;18.70;;;8.70;;
52456;SDS011;38369;52.840;7.082;2022-10-30T02:58:50;16.05;;;9.60;;
52456;SDS011;38369;52.840;7.082;2022-10-30T03:01:16;21.83;;;9.70;;
52456;SDS011;38369;52.840;7.082;2022-10-30T03:03:43;18.67;;;9.27;;
52456;SDS011;38369;52.840;7.082;2022-10-30T03:06:10;22.25;;;10.20;;
52456;SDS011;38369;52.840;7.082;2022-10-30T03:08:36;19.48;;;10.07;;
52456;SDS011;38369;52.840;7.082;2022-10-30T03:11:07;17.63;;;9.40;;
52456;SDS011;38369;52.840;7.082;2022-10-30T03:13:33;21.15;;;9.38;;
52456;SDS011;38369;52.840;7.082;2022-10-30T03:16:04;24.42;;;10.05;;
52456;SDS011;38369;52.840;7.082;2022-10-30T03:20:57;18.00;;;8.82;;
52456;SDS011;38369;52.840;7.082;2022-10-30T03:23:23;19.50;;;9.13;;
52456;SDS011;38369;52.840;7.082;2022-10-30T03:25:53;18.40;;;9.60;;
52456;SDS011;38369;52.840;7.082;2022-10-30T03:28:20;21.30;;;9.27;;
52456;SDS011;38369;52.840;7.082;2022-10-30T03:30:46;18.75;;;9.70;;
52456;SDS011;38369;52.840;7.082;2022-10-30T03:33:12;16.95;;;9.27;;
52456;SDS011;38369;52.840;7.082;2022-10-30T03:35:38;13.23;;;8.48;;
52456;SDS011;38369;52.840;7.082;2022-10-30T03:38:04;18.90;;;9.38;;
52456;SDS011;38369;52.840;7.082;2022-10-30T03:40:30;16.48;;;10.02;;
52456;SDS011;38369;52.840;7.082;2022-10-30T03:42:56;17.70;;;10.07;;
52456;SDS011;38369;52.840;7.082;2022-10-30T03:45:22;18.38;;;9.38;;
52456;SDS011;38369;52.840;7.082;2022-10-30T03:47:48;20.02;;;9.70;;
52456;SDS011;38369;52.840;7.082;2022-10-30T03:50:14;20.05;;;10.60;;
52456;SDS011;38369;52.840;7.082;2022-10-30T03:52:40;19.20;;;9.45;;
52456;SDS011;38369;52.840;7.082;2022-10-30T03:55:06;19.20;;;8.85;;
52456;SDS011;38369;52.840;7.082;2022-10-30T03:57:35;19.70;;;10.55;;
52456;SDS011;38369;52.840;7.082;2022-10-30T04:00:01;23.90;;;10.15;;
52456;SDS011;38369;52.840;7.082;2022-10-30T04:02:27;22.95;;;10.20;;
52456;SDS011;38369;52.840;7.082;2022-10-30T04:04:53;23.77;;;10.07;;
52456;SDS011;38369;52.840;7.082;2022-10-30T04:07:19;21.40;;;9.35;;
52456;SDS011;38369;52.840;7.082;2022-10-30T04:09:45;24.00;;;12.23;;
52456;SDS011;38369;52.840;7.082;2022-10-30T04:12:11;22.13;;;10.15;;
52456;SDS011;38369;52.840;7.082;2022-10-30T04:14:37;22.58;;;11.23;;
52456;SDS011;38369;52.840;7.082;2022-10-30T04:17:03;16.33;;;10.10;;
52456;SDS011;38369;52.840;7.082;2022-10-30T04:19:30;18.98;;;9.85;;
52456;SDS011;38369;52.840;7.082;2022-10-30T04:21:56;18.80;;;11.13;;
52456;SDS011;38369;52.840;7.082;2022-10-30T04:24:22;17.05;;;9.20;;
52456;SDS011;38369;52.840;7.082;2022-10-30T04:26:48;15.63;;;10.18;;
52456;SDS011;38369;52.840;7.082;2022-10-30T04:29:14;18.33;;;10.35;;
52456;SDS011;38369;52.840;7.082;2022-10-30T04:31:40;19.42;;;10.32;;
52456;SDS011;38369;52.840;7.082;2022-10-30T04:34:06;19.23;;;9.68;;
52456;SDS011;38369;52.840;7.082;2022-10-30T04:36:32;21.20;;;10.45;;
52456;SDS011;38369;52.840;7.082;2022-10-30T04:38:59;16.08;;;9.77;;
52456;SDS011;38369;52.840;7.082;2022-10-30T04:41:26;22.63;;;10.63;;
52456;SDS011;38369;52.840;7.082;2022-10-30T04:43:52;23.77;;;10.88;;
52456;SDS011;38369;52.840;7.082;2022-10-30T04:46:18;20.02;;;9.98;;
52456;SDS011;38369;52.840;7.082;2022-10-30T04:48:44;16.98;;;10.60;;
52456;SDS011;38369;52.840;7.082;2022-10-30T04:51:10;22.27;;;11.50;;
52456;SDS011;38369;52.840;7.082;2022-10-30T04:53:37;16.30;;;10.70;;
52456;SDS011;38369;52.840;7.082;2022-10-30T04:56:03;16.83;;;10.68;;
52456;SDS011;38369;52.840;7.082;2022-10-30T04:58:30;19.92;;;10.45;;
52456;SDS011;38369;52.840;7.082;2022-10-30T05:00:59;18.85;;;10.98;;
52456;SDS011;38369;52.840;7.082;2022-10-30T05:03:26;18.35;;;11.65;;
52456;SDS011;38369;52.840;7.082;2022-10-30T05:08:28;21.10;;;11.02;;
52456;SDS011;38369;52.840;7.082;2022-10-30T05:10:54;20.63;;;11.40;;
52456;SDS011;38369;52.840;7.082;2022-10-30T05:13:20;18.67;;;10.52;;
52456;SDS011;38369;52.840;7.082;2022-10-30T05:15:46;24.90;;;11.95;;
52456;SDS011;38369;52.840;7.082;2022-10-30T05:18:12;21.85;;;12.30;;
52456;SDS011;38369;52.840;7.082;2022-10-30T05:20:39;19.48;;;10.82;;
52456;SDS011;38369;52.840;7.082;2022-10-30T05:23:05;19.38;;;10.82;;
52456;SDS011;38369;52.840;7.082;2022-10-30T05:25:31;22.33;;;10.52;;
52456;SDS011;38369;52.840;7.082;2022-10-30T05:27:57;26.08;;;11.05;;
52456;SDS011;38369;52.840;7.082;2022-10-30T05:30:25;21.75;;;10.98;;
52456;SDS011;38369;52.840;7.082;2022-10-30T05:32:55;17.88;;;10.68;;
52456;SDS011;38369;52.840;7.082;2022-10-30T05:35:21;20.30;;;13.00;;
52456;SDS011;38369;52.840;7.082;2022-10-30T05:37:48;22.20;;;11.93;;
52456;SDS011;38369;52.840;7.082;2022-10-30T05:40:14;23.13;;;11.85;;
52456;SDS011;38369;52.840;7.082;2022-10-30T05:42:46;25.92;;;12.07;;
52456;SDS011;38369;52.840;7.082;2022-10-30T05:45:13;20.15;;;10.98;;
52456;SDS011;38369;52.840;7.082;2022-10-30T05:47:39;18.80;;;11.05;;
52456;SDS011;38369;52.840;7.082;2022-10-30T05:50:05;21.10;;;11.45;;
52456;SDS011;38369;52.840;7.082;2022-10-30T05:52:31;24.63;;;12.13;;
52456;SDS011;38369;52.840;7.082;2022-10-30T05:54:57;22.13;;;11.50;;
52456;SDS011;38369;52.840;7.082;2022-10-30T05:57:23;23.23;;;11.52;;
52456;SDS011;38369;52.840;7.082;2022-10-30T05:59:49;33.08;;;12.07;;
52456;SDS011;38369;52.840;7.082;2022-10-30T06:02:15;19.83;;;11.68;;
52456;SDS011;38369;52.840;7.082;2022-10-30T06:04:42;21.73;;;12.27;;
52456;SDS011;38369;52.840;7.082;2022-10-30T06:07:08;20.88;;;12.02;;
52456;SDS011;38369;52.840;7.082;2022-10-30T06:09:34;16.05;;;11.38;;
52456;SDS011;38369;52.840;7.082;2022-10-30T06:12:01;17.98;;;11.57;;
52456;SDS011;38369;52.840;7.082;2022-10-30T06:14:27;17.67;;;12.77;;
52456;SDS011;38369;52.840;7.082;2022-10-30T06:16:53;21.55;;;12.43;;
52456;SDS011;38369;52.840;7.082;2022-10-30T06:19:19;23.45;;;12.18;;
52456;SDS011;38369;52.840;7.082;2022-10-30T06:21:45;24.80;;;13.40;;
52456;SDS011;38369;52.840;7.082;2022-10-30T06:24:11;35.50;;;13.18;;
52456;SDS011;38369;52.840;7.082;2022-10-30T06:26:37;32.95;;;13.68;;
52456;SDS011;38369;52.840;7.082;2022-10-30T06:29:03;24.23;;;12.50;;
52456;SDS011;38369;52.840;7.082;2022-10-30T06:31:29;22.55;;;12.82;;
52456;SDS011;38369;52.840;7.082;2022-10-30T06:33:55;26.83;;;13.52;;
52456;SDS011;38369;52.840;7.082;2022-10-30T06:36:21;21.40;;;13.05;;
52456;SDS011;38369;52.840;7.082;2022-10-30T06:38:47;23.50;;;12.82;;
52456;SDS011;38369;52.840;7.082;2022-10-30T06:41:14;28.58;;;13.02;;
52456;SDS011;38369;52.840;7.082;2022-10-30T06:43:40;27.40;;;13.25;;
52456;SDS011;38369;52.840;7.082;2022-10-30T06:46:06;20.35;;;12.32;;
52456;SDS011;38369;52.840;7.082;2022-10-30T06:48:32;22.52;;;13.20;;
52456;SDS011;38369;52.840;7.082;2022-10-30T06:50:58;20.25;;;14.18;;
52456;SDS011;38369;52.840;7.082;2022-10-30T06:53:27;20.20;;;11.68;;
52456;SDS011;38369;52.840;7.082;2022-10-30T06:56:00;26.60;;;14.27;;
52456;SDS011;38369;52.840;7.082;2022-10-30T06:58:26;21.10;;;12.75;;
52456;SDS011;38369;52.840;7.082;2022-10-30T07:00:53;24.85;;;14.27;;
52456;SDS011;38369;52.840;7.082;2022-10-30T07:03:19;25.80;;;12.85;;
52456;SDS011;38369;52.840;7.082;2022-10-30T07:05:45;28.60;;;14.15;;
52456;SDS011;38369;52.840;7.082;2022-10-30T07:08:12;24.17;;;14.45;;
52456;SDS011;38369;52.840;7.082;2022-10-30T07:10:38;24.33;;;13.90;;
52456;SDS011;38369;52.840;7.082;2022-10-30T07:13:04;25.30;;;14.23;;
52456;SDS011;38369;52.840;7.082;2022-10-30T07:15:30;24.40;;;13.85;;
52456;SDS011;38369;52.840;7.082;2022-10-30T07:18:00;26.65;;;14.13;;
52456;SDS011;38369;52.840;7.082;2022-10-30T07:20:28;24.98;;;13.32;;
52456;SDS011;38369;52.840;7.082;2022-10-30T07:22:54;22.63;;;13.35;;
52456;SDS011;38369;52.840;7.082;2022-10-30T07:25:20;27.67;;;14.48;;
52456;SDS011;38369;52.840;7.082;2022-10-30T07:27:47;25.13;;;13.98;;
52456;SDS011;38369;52.840;7.082;2022-10-30T07:30:14;26.25;;;15.02;;
52456;SDS011;38369;52.840;7.082;2022-10-30T07:32:40;22.30;;;14.32;;
52456;SDS011;38369;52.840;7.082;2022-10-30T07:35:07;28.95;;;15.60;;
52456;SDS011;38369;52.840;7.082;2022-10-30T07:37:33;26.63;;;14.32;;
52456;SDS011;38369;52.840;7.082;2022-10-30T07:39:59;24.80;;;12.75;;
52456;SDS011;38369;52.840;7.082;2022-10-30T07:42:25;27.17;;;14.25;;
52456;SDS011;38369;52.840;7.082;2022-10-30T07:44:52;23.33;;;14.68;;
52456;SDS011;38369;52.840;7.082;2022-10-30T07:47:18;21.00;;;13.57;;
52456;SDS011;38369;52.840;7.082;2022-10-30T07:49:44;25.17;;;15.65;;
52456;SDS011;38369;52.840;7.082;2022-10-30T07:52:10;31.35;;;14.95;;
52456;SDS011;38369;52.840;7.082;2022-10-30T07:54:36;28.65;;;14.52;;
52456;SDS011;38369;52.840;7.082;2022-10-30T07:57:02;27.60;;;14.68;;
52456;SDS011;38369;52.840;7.082;2022-10-30T07:59:28;32.30;;;15.52;;
52456;SDS011;38369;52.840;7.082;2022-10-30T08:01:54;25.38;;;15.02;;
52456;SDS011;38369;52.840;7.082;2022-10-30T08:04:20;27.45;;;15.15;;
52456;SDS011;38369;52.840;7.082;2022-10-30T08:06:46;31.27;;;16.27;;
52456;SDS011;38369;52.840;7.082;2022-10-30T08:09:12;30.10;;;16.98;;
52456;SDS011;38369;52.840;7.082;2022-10-30T08:11:38;31.30;;;17.80;;
52456;SDS011;38369;52.840;7.082;2022-10-30T08:14:04;31.13;;;16.25;;
52456;SDS011;38369;52.840;7.082;2022-10-30T08:16:30;30.40;;;18.38;;
52456;SDS011;38369;52.840;7.082;2022-10-30T08:18:56;47.13;;;18.45;;
52456;SDS011;38369;52.840;7.082;2022-10-30T08:21:23;32.03;;;17.50;;
52456;SDS011;38369;52.840;7.082;2022-10-30T08:23:49;28.25;;;18.95;;
52456;SDS011;38369;52.840;7.082;2022-10-30T08:26:15;29.48;;;17.83;;
52456;SDS011;38369;52.840;7.082;2022-10-30T08:28:41;35.08;;;18.98;;
52456;SDS011;38369;52.840;7.082;2022-10-30T08:31:07;30.35;;;16.95;;
52456;SDS011;38369;52.840;7.082;2022-10-30T08:33:33;29.50;;;18.00;;
52456;SDS011;38369;52.840;7.082;2022-10-30T08:36:00;25.75;;;16.60;;
52456;SDS011;38369;52.840;7.082;2022-10-30T08:38:26;27.58;;;16.02;;
52456;SDS011;38369;52.840;7.082;2022-10-30T08:40:53;26.13;;;17.83;;
52456;SDS011;38369;52.840;7.082;2022-10-30T08:43:19;34.13;;;18.75;;
52456;SDS011;38369;52.840;7.082;2022-10-30T08:45:46;28.42;;;17.25;;
52456;SDS011;38369;52.840;7.082;2022-10-30T08:48:13;28.23;;;17.67;;
52456;SDS011;38369;52.840;7.082;2022-10-30T08:50:39;35.88;;;18.30;;
52456;SDS011;38369;52.840;7.082;2022-10-30T08:53:06;26.90;;;17.35;;
52456;SDS011;38369;52.840;7.082;2022-10-30T08:55:33;30.90;;;17.45;;
52456;SDS011;38369;52.840;7.082;2022-10-30T08:58:00;30.75;;;19.15;;
52456;SDS011;38369;52.840;7.082;2022-10-30T09:00:26;39.47;;;19.95;;
52456;SDS011;38369;52.840;7.082;2022-10-30T09:02:52;27.80;;;18.00;;
52456;SDS011;38369;52.840;7.082;2022-10-30T09:05:19;30.42;;;18.80;;
52456;SDS011;38369;52.840;7.082;2022-10-30T09:07:45;27.85;;;17.10;;
52456;SDS011;38369;52.840;7.082;2022-10-30T09:10:11;35.83;;;19.70;;
52456;SDS011;38369;52.840;7.082;2022-10-30T09:12:37;35.08;;;20.00;;
52456;SDS011;38369;52.840;7.082;2022-10-30T09:15:03;25.15;;;17.73;;
52456;SDS011;38369;52.840;7.082;2022-10-30T09:17:30;41.22;;;19.33;;
52456;SDS011;38369;52.840;7.082;2022-10-30T09:19:56;30.30;;;19.02;;
52456;SDS011;38369;52.840;7.082;2022-10-30T09:22:22;32.58;;;18.00;;
52456;SDS011;38369;52.840;7.082;2022-10-30T09:24:48;26.10;;;17.40;;
52456;SDS011;38369;52.840;7.082;2022-10-30T09:27:15;27.00;;;18.00;;
52456;SDS011;38369;52.840;7.082;2022-10-30T09:29:41;32.85;;;17.92;;
52456;SDS011;38369;52.840;7.082;2022-10-30T09:32:08;28.83;;;17.67;;
52456;SDS011;38369;52.840;7.082;2022-10-30T09:34:37;30.95;;;17.08;;
52456;SDS011;38369;52.840;7.082;2022-10-30T09:37:03;29.88;;;17.08;;
52456;SDS011;38369;52.840;7.082;2022-10-30T09:39:29;32.13;;;17.92;;
52456;SDS011;38369;52.840;7.082;2022-10-30T09:52:07;34.10;;;17.98;;
52456;SDS011;38369;52.840;7.082;2022-10-30T09:57:13;32.88;;;19.00;;
52456;SDS011;38369;52.840;7.082;2022-10-30T10:00:26;33.53;;;19.25;;
52456;SDS011;38369;52.840;7.082;2022-10-30T10:02:37;25.65;;;17.35;;
52456;SDS011;38369;52.840;7.082;2022-10-30T10:05:21;29.38;;;17.80;;
52456;SDS011;38369;52.840;7.082;2022-10-30T10:07:51;30.88;;;18.25;;
52456;SDS011;38369;52.840;7.082;2022-10-30T10:10:23;21.90;;;16.70;;
52456;SDS011;38369;52.840;7.082;2022-10-30T10:12:52;29.70;;;17.77;;
52456;SDS011;38369;52.840;7.082;2022-10-30T10:18:01;27.95;;;15.80;;
52456;SDS011;38369;52.840;7.082;2022-10-30T10:20:38;25.63;;;16.43;;
52456;SDS011;38369;52.840;7.082;2022-10-30T10:25:53;27.83;;;15.85;;
52456;SDS011;38369;52.840;7.082;2022-10-30T10:30:57;24.20;;;14.90;;
52456;SDS011;38369;52.840;7.082;2022-10-30T10:38:35;27.17;;;16.55;;
52456;SDS011;38369;52.840;7.082;2022-10-30T10:51:28;27.52;;;15.43;;
52456;SDS011;38369;52.840;7.082;2022-10-30T10:53:58;25.90;;;15.45;;
52456;SDS011;38369;52.840;7.082;2022-10-30T10:56:30;27.00;;;15.93;;
52456;SDS011;38369;52.840;7.082;2022-10-30T10:59:00;23.45;;;15.32;;
52456;SDS011;38369;52.840;7.082;2022-10-30T11:01:35;26.40;;;15.68;;
52456;SDS011;38369;52.840;7.082;2022-10-30T11:04:04;22.20;;;14.93;;
52456;SDS011;38369;52.840;7.082;2022-10-30T11:06:31;23.73;;;15.52;;
52456;SDS011;38369;52.840;7.082;2022-10-30T11:09:13;28.88;;;16.48;;
52456;SDS011;38369;52.840;7.082;2022-10-30T11:11:41;25.73;;;15.38;;
52456;SDS011;38369;52.840;7.082;2022-10-30T11:14:12;25.02;;;15.68;;
52456;SDS011;38369;52.840;7.082;2022-10-30T11:19:08;27.33;;;16.10;;
52456;SDS011;38369;52.840;7.082;2022-10-30T11:21:37;28.40;;;15.77;;
52456;SDS011;38369;52.840;7.082;2022-10-30T11:24:07;23.30;;;14.98;;
52456;SDS011;38369;52.840;7.082;2022-10-30T11:26:49;28.20;;;16.35;;
52456;SDS011;38369;52.840;7.082;2022-10-30T11:29:17;27.67;;;15.68;;
52456;SDS011;38369;52.840;7.082;2022-10-30T11:31:57;23.40;;;14.07;;
52456;SDS011;38369;52.840;7.082;2022-10-30T11:34:30;26.80;;;15.98;;
52456;SDS011;38369;52.840;7.082;2022-10-30T11:36:56;25.45;;;14.98;;
52456;SDS011;38369;52.840;7.082;2022-10-30T11:39:23;28.65;;;15.32;;
52456;SDS011;38369;52.840;7.082;2022-10-30T11:44:19;24.55;;;16.02;;
52456;SDS011;38369;52.840;7.082;2022-10-30T11:46:45;29.70;;;14.18;;
52456;SDS011;38369;52.840;7.082;2022-10-30T11:51:57;22.85;;;14.20;;
52456;SDS011;38369;52.840;7.082;2022-10-30T11:54:23;28.10;;;15.68;;
52456;SDS011;38369;52.840;7.082;2022-10-30T11:56:50;27.45;;;13.30;;
52456;SDS011;38369;52.840;7.082;2022-10-30T11:59:19;22.92;;;13.38;;
52456;SDS011;38369;52.840;7.082;2022-10-30T12:01:59;23.77;;;13.10;;
52456;SDS011;38369;52.840;7.082;2022-10-30T12:04:26;22.15;;;13.13;;
52456;SDS011;38369;52.840;7.082;2022-10-30T12:07:05;25.92;;;13.73;;
52456;SDS011;38369;52.840;7.082;2022-10-30T12:09:32;28.13;;;14.95;;
52456;SDS011;38369;52.840;7.082;2022-10-30T12:12:09;21.63;;;13.05;;
52456;SDS011;38369;52.840;7.082;2022-10-30T12:14:36;21.45;;;13.60;;
52456;SDS011;38369;52.840;7.082;2022-10-30T12:17:02;22.25;;;11.15;;
52456;SDS011;38369;52.840;7.082;2022-10-30T12:19:29;24.20;;;12.02;;
52456;SDS011;38369;52.840;7.082;2022-10-30T12:21:56;19.85;;;11.50;;
52456;SDS011;38369;52.840;7.082;2022-10-30T12:26:51;22.95;;;11.55;;
52456;SDS011;38369;52.840;7.082;2022-10-30T12:29:19;21.77;;;12.63;;
52456;SDS011;38369;52.840;7.082;2022-10-30T12:31:52;22.65;;;11.30;;
52456;SDS011;38369;52.840;7.082;2022-10-30T12:36:59;22.08;;;11.18;;
52456;SDS011;38369;52.840;7.082;2022-10-30T12:39:30;16.65;;;10.00;;
52456;SDS011;38369;52.840;7.082;2022-10-30T12:42:01;20.55;;;12.00;;
52456;SDS011;38369;52.840;7.082;2022-10-30T12:44:32;21.85;;;12.13;;
52456;SDS011;38369;52.840;7.082;2022-10-30T12:47:02;22.15;;;11.82;;
52456;SDS011;38369;52.840;7.082;2022-10-30T12:54:34;22.58;;;12.07;;
52456;SDS011;38369;52.840;7.082;2022-10-30T12:57:06;19.98;;;12.30;;
52456;SDS011;38369;52.840;7.082;2022-10-30T12:59:45;22.13;;;10.63;;
52456;SDS011;38369;52.840;7.082;2022-10-30T13:04:42;22.92;;;13.25;;
52456;SDS011;38369;52.840;7.082;2022-10-30T13:07:21;20.77;;;11.45;;
52456;SDS011;38369;52.840;7.082;2022-10-30T13:12:36;21.27;;;12.02;;
52456;SDS011;38369;52.840;7.082;2022-10-30T13:15:15;22.88;;;13.45;;
52456;SDS011;38369;52.840;7.082;2022-10-30T13:17:43;25.90;;;12.95;;
52456;SDS011;38369;52.840;7.082;2022-10-30T13:20:10;30.55;;;13.57;;
52456;SDS011;38369;52.840;7.082;2022-10-30T13:30:21;19.55;;;11.73;;
52456;SDS011;38369;52.840;7.082;2022-10-30T13:33:06;22.25;;;11.35;;
52456;SDS011;38369;52.840;7.082;2022-10-30T13:35:39;27.45;;;12.52;;
52456;SDS011;38369;52.840;7.082;2022-10-30T13:40:53;25.58;;;12.10;;
52456;SDS011;38369;52.840;7.082;2022-10-30T13:48:27;21.95;;;11.85;;
52456;SDS011;38369;52.840;7.082;2022-10-30T13:53:27;26.08;;;12.38;;
52456;SDS011;38369;52.840;7.082;2022-10-30T13:55:54;24.60;;;11.60;;
52456;SDS011;38369;52.840;7.082;2022-10-30T13:58:34;26.15;;;12.25;;
52456;SDS011;38369;52.840;7.082;2022-10-30T14:01:05;24.23;;;12.15;;
52456;SDS011;38369;52.840;7.082;2022-10-30T14:08:30;22.33;;;11.57;;
52456;SDS011;38369;52.840;7.082;2022-10-30T14:10:58;21.63;;;11.23;;
52456;SDS011;38369;52.840;7.082;2022-10-30T14:13:25;19.98;;;12.48;;
52456;SDS011;38369;52.840;7.082;2022-10-30T14:15:52;24.98;;;12.23;;
52456;SDS011;38369;52.840;7.082;2022-10-30T14:18:25;23.33;;;12.65;;
52456;SDS011;38369;52.840;7.082;2022-10-30T14:20:52;25.10;;;13.40;;
52456;SDS011;38369;52.840;7.082;2022-10-30T14:26:10;20.67;;;12.45;;
52456;SDS011;38369;52.840;7.082;2022-10-30T14:28:38;22.92;;;11.27;;
52456;SDS011;38369;52.840;7.082;2022-10-30T14:31:05;28.70;;;13.48;;
52456;SDS011;38369;52.840;7.082;2022-10-30T14:38:39;23.67;;;11.90;;
52456;SDS011;38369;52.840;7.082;2022-10-30T14:41:16;16.67;;;10.40;;
52456;SDS011;38369;52.840;7.082;2022-10-30T14:46:25;18.90;;;10.35;;
52456;SDS011;38369;52.840;7.082;2022-10-30T14:49:55;19.65;;;11.60;;
52456;SDS011;38369;52.840;7.082;2022-10-30T14:51:50;21.33;;;11.80;;
52456;SDS011;38369;52.840;7.082;2022-10-30T14:54:22;20.27;;;11.23;;
52456;SDS011;38369;52.840;7.082;2022-10-30T14:56:50;15.90;;;10.50;;
52456;SDS011;38369;52.840;7.082;2022-10-30T15:09:09;20.15;;;11.95;;
52456;SDS011;38369;52.840;7.082;2022-10-30T15:14:07;26.10;;;12.18;;
52456;SDS011;38369;52.840;7.082;2022-10-30T15:16:36;20.05;;;11.15;;
52456;SDS011;38369;52.840;7.082;2022-10-30T15:19:07;25.33;;;11.93;;
52456;SDS011;38369;52.840;7.082;2022-10-30T15:21:34;22.55;;;11.45;;
52456;SDS011;38369;52.840;7.082;2022-10-30T15:24:03;23.10;;;12.38;;
52456;SDS011;38369;52.840;7.082;2022-10-30T15:26:35;22.80;;;11.35;;
52456;SDS011;38369;52.840;7.082;2022-10-30T15:29:01;26.10;;;12.75;;
52456;SDS011;38369;52.840;7.082;2022-10-30T15:31:29;22.40;;;13.27;;
52456;SDS011;38369;52.840;7.082;2022-10-30T15:33:55;21.27;;;12.57;;
52456;SDS011;38369;52.840;7.082;2022-10-30T15:36:28;28.40;;;12.57;;
52456;SDS011;38369;52.840;7.082;2022-10-30T15:39:06;23.40;;;12.40;;
52456;SDS011;38369;52.840;7.082;2022-10-30T15:41:37;21.35;;;11.70;;
52456;SDS011;38369;52.840;7.082;2022-10-30T15:44:04;18.98;;;11.35;;
52456;SDS011;38369;52.840;7.082;2022-10-30T15:46:31;23.02;;;12.40;;
52456;SDS011;38369;52.840;7.082;2022-10-30T15:48:57;24.80;;;12.65;;
52456;SDS011;38369;52.840;7.082;2022-10-30T15:51:23;23.45;;;13.18;;
52456;SDS011;38369;52.840;7.082;2022-10-30T15:53:54;21.60;;;12.73;;
52456;SDS011;38369;52.840;7.082;2022-10-30T15:56:25;20.65;;;13.15;;
52456;SDS011;38369;52.840;7.082;2022-10-30T15:58:53;25.95;;;13.95;;
52456;SDS011;38369;52.840;7.082;2022-10-30T16:01:24;21.88;;;13.40;;
52456;SDS011;38369;52.840;7.082;2022-10-30T16:03:51;19.73;;;12.55;;
52456;SDS011;38369;52.840;7.082;2022-10-30T16:06:17;23.70;;;12.63;;
52456;SDS011;38369;52.840;7.082;2022-10-30T16:08:44;27.13;;;12.75;;
52456;SDS011;38369;52.840;7.082;2022-10-30T16:11:11;25.83;;;12.77;;
52456;SDS011;38369;52.840;7.082;2022-10-30T16:13:38;25.33;;;12.98;;
52456;SDS011;38369;52.840;7.082;2022-10-30T16:16:04;22.98;;;13.45;;
52456;SDS011;38369;52.840;7.082;2022-10-30T16:18:31;27.00;;;14.15;;
52456;SDS011;38369;52.840;7.082;2022-10-30T16:21:00;23.98;;;12.93;;
52456;SDS011;38369;52.840;7.082;2022-10-30T16:23:27;31.63;;;14.23;;
52456;SDS011;38369;52.840;7.082;2022-10-30T16:25:54;25.38;;;12.77;;
52456;SDS011;38369;52.840;7.082;2022-10-30T16:28:26;21.75;;;13.25;;
52456;SDS011;38369;52.840;7.082;2022-10-30T16:30:53;24.80;;;13.38;;
52456;SDS011;38369;52.840;7.082;2022-10-30T16:33:21;27.20;;;13.38;;
52456;SDS011;38369;52.840;7.082;2022-10-30T16:35:48;23.83;;;12.57;;